createdAt,value
2023-06-10T00:00:09.342Z,20.51
2023-06-10T00:02:36.128Z,20.52
2023-06-10T00:05:03.407Z,20.46
2023-06-10T00:07:29.972Z,20.44
2023-06-10T00:09:56.559Z,20.43
2023-06-10T00:12:23.041Z,20.43
2023-06-10T00:14:51.429Z,20.44
2023-06-10T00:17:18.112Z,20.45
2023-06-10T00:19:47.878Z,20.44
2023-06-10T00:22:14.984Z,20.44
2023-06-10T00:24:42.969Z,20.42
2023-06-10T00:27:09.717Z,20.35
2023-06-10T00:29:36.486Z,20.37
2023-06-10T00:32:03.552Z,20.39
2023-06-10T00:34:30.237Z,20.39
2023-06-10T00:36:56.913Z,20.34
2023-06-10T00:39:23.536Z,20.28
2023-06-10T00:41:50.491Z,20.25
2023-06-10T00:44:17.404Z,20.17
2023-06-10T00:46:44.482Z,20.15
2023-06-10T00:49:11.453Z,20.12
2023-06-10T00:51:38.267Z,20.14
2023-06-10T00:54:05.948Z,20.14
2023-06-10T00:56:34.262Z,20.08
2023-06-10T00:59:00.997Z,20.02
2023-06-10T01:01:27.919Z,19.99
2023-06-10T01:03:54.520Z,20.05
2023-06-10T01:06:21.116Z,20.04
2023-06-10T01:09:07.722Z,20.04
2023-06-10T01:12:09.903Z,20.09
2023-06-10T01:14:46.015Z,20.08
2023-06-10T01:17:13.227Z,20.06
2023-06-10T01:19:39.886Z,20.06
2023-06-10T01:22:06.720Z,20.04
2023-06-10T01:24:35.233Z,20.05
2023-06-10T01:27:07.551Z,20.04
2023-06-10T01:30:12.457Z,20.04
2023-06-10T01:32:44.343Z,20.00
2023-06-10T01:35:12.247Z,19.94
2023-06-10T01:37:45.810Z,19.95
2023-06-10T01:40:13.561Z,19.97
2023-06-10T01:42:40.236Z,19.89
2023-06-10T01:45:07.631Z,19.82
2023-06-10T01:47:34.426Z,19.77
2023-06-10T01:50:01.053Z,19.74
2023-06-10T01:52:27.799Z,19.70
2023-06-10T01:54:54.382Z,19.70
2023-06-10T01:57:21.224Z,19.62
2023-06-10T01:59:47.754Z,19.63
2023-06-10T02:02:14.319Z,19.54
2023-06-10T02:04:40.858Z,19.42
2023-06-10T02:07:07.436Z,19.39
2023-06-10T02:09:36.152Z,19.33
2023-06-10T02:12:07.263Z,19.30
2023-06-10T02:14:34.340Z,19.31
2023-06-10T02:17:01.715Z,19.32
2023-06-10T02:19:28.642Z,19.28
2023-06-10T02:21:55.609Z,19.26
2023-06-10T02:24:22.248Z,19.22
2023-06-10T02:26:49.084Z,19.16
2023-06-10T02:29:15.719Z,19.10
2023-06-10T02:31:42.384Z,19.09
2023-06-10T02:34:09.696Z,19.02
2023-06-10T02:36:36.919Z,18.99
2023-06-10T02:39:05.316Z,19.00
2023-06-10T02:41:31.986Z,18.94
2023-06-10T02:43:58.528Z,18.89
2023-06-10T02:46:25.302Z,18.84
2023-06-10T02:48:53.138Z,18.82
2023-06-10T02:51:19.876Z,18.84
2023-06-10T02:53:46.677Z,18.80
2023-06-10T02:56:13.690Z,18.73
2023-06-10T02:58:40.429Z,18.67
2023-06-10T03:01:07.005Z,18.60
2023-06-10T03:03:35.146Z,18.58
2023-06-10T03:06:01.843Z,18.56
2023-06-10T03:08:28.343Z,18.53
2023-06-10T03:10:55.128Z,18.52
2023-06-10T03:13:22.953Z,18.51
2023-06-10T03:15:49.963Z,18.51
2023-06-10T03:18:17.048Z,18.50
2023-06-10T03:20:45.701Z,18.44
2023-06-10T03:23:12.311Z,18.45
2023-06-10T03:25:38.843Z,18.38
2023-06-10T03:28:05.509Z,18.37
2023-06-10T03:30:32.266Z,18.39
2023-06-10T03:32:58.917Z,18.47
2023-06-10T03:35:25.514Z,18.51
2023-06-10T03:37:52.082Z,18.56
2023-06-10T03:40:18.600Z,18.55
2023-06-10T03:42:45.479Z,18.54
2023-06-10T03:45:12.488Z,18.50
2023-06-10T03:47:39.436Z,18.51
2023-06-10T03:50:06.517Z,18.46
2023-06-10T03:52:33.131Z,18.41
2023-06-10T03:54:59.655Z,18.37
2023-06-10T03:57:26.779Z,18.34
2023-06-10T03:59:53.495Z,18.39
2023-06-10T04:02:20.096Z,18.42
2023-06-10T04:04:46.647Z,18.50
2023-06-10T04:07:15.018Z,18.52
2023-06-10T04:09:41.676Z,18.59
2023-06-10T04:12:10.130Z,18.68
2023-06-10T04:14:39.418Z,18.69
2023-06-10T04:17:09.732Z,18.70
2023-06-10T04:19:36.421Z,18.74
2023-06-10T04:22:06.319Z,18.77
2023-06-10T04:24:33.046Z,18.83
2023-06-10T04:26:59.629Z,18.83
2023-06-10T04:29:26.254Z,18.87
2023-06-10T04:31:52.852Z,18.97
2023-06-10T04:34:19.403Z,19.14
2023-06-10T04:36:46.618Z,19.30
2023-06-10T04:39:13.150Z,19.25
2023-06-10T04:41:39.648Z,19.19
2023-06-10T04:44:06.250Z,19.38
2023-06-10T04:46:32.948Z,19.44
2023-06-10T04:48:59.717Z,19.42
2023-06-10T04:51:27.011Z,19.41
2023-06-10T04:53:53.650Z,19.33
2023-06-10T04:56:21.305Z,19.33
2023-06-10T04:58:47.932Z,19.43
2023-06-10T05:01:14.658Z,19.51
2023-06-10T05:03:41.248Z,19.50
2023-06-10T05:06:07.913Z,19.58
2023-06-10T05:08:35.424Z,19.58
2023-06-10T05:11:02.122Z,19.70
2023-06-10T05:13:28.614Z,19.81
2023-06-10T05:15:55.226Z,20.08
2023-06-10T05:18:22.385Z,20.32
2023-06-10T05:20:49.074Z,20.43
2023-06-10T05:23:15.710Z,20.44
2023-06-10T05:25:42.988Z,20.24
2023-06-10T05:28:13.572Z,20.15
2023-06-10T05:30:41.987Z,20.07
2023-06-10T05:33:08.688Z,20.03
2023-06-10T05:35:35.294Z,19.94
2023-06-10T05:38:03.831Z,19.97
2023-06-10T05:40:30.880Z,19.92
2023-06-10T05:42:57.395Z,19.95
2023-06-10T05:45:23.910Z,19.97
2023-06-10T05:47:50.668Z,20.03
2023-06-10T05:50:17.282Z,20.02
2023-06-10T05:52:43.877Z,20.01
2023-06-10T05:55:11.383Z,19.97
2023-06-10T05:57:38.197Z,19.96
2023-06-10T06:00:05.586Z,20.03
2023-06-10T06:02:32.396Z,20.11
2023-06-10T06:04:59.086Z,20.13
2023-06-10T06:07:25.991Z,20.15
2023-06-10T06:09:52.493Z,20.16
2023-06-10T06:12:19.078Z,20.14
2023-06-10T06:14:46.023Z,20.13
2023-06-10T06:17:12.685Z,20.18
2023-06-10T06:19:39.261Z,20.16
2023-06-10T06:22:05.784Z,20.13
2023-06-10T06:24:32.428Z,20.16
2023-06-10T06:26:59.015Z,20.15
2023-06-10T06:29:25.676Z,20.18
2023-06-10T06:31:52.341Z,20.27
2023-06-10T06:34:18.995Z,20.31
2023-06-10T06:36:45.523Z,20.30
2023-06-10T06:39:12.110Z,20.29
2023-06-10T06:41:38.828Z,20.32
2023-06-10T06:44:05.334Z,20.42
2023-06-10T06:46:31.845Z,20.49
2023-06-10T06:48:58.587Z,20.57
2023-06-10T06:51:25.345Z,20.64
2023-06-10T06:53:52.417Z,20.69
2023-06-10T06:56:18.979Z,20.72
2023-06-10T06:58:45.590Z,20.72
2023-06-10T07:01:12.144Z,20.76
2023-06-10T07:03:38.719Z,20.85
2023-06-10T07:06:05.508Z,20.93
2023-06-10T07:08:32.084Z,20.93
2023-06-10T07:10:58.670Z,21.00
2023-06-10T07:13:25.299Z,21.10
2023-06-10T07:15:51.964Z,21.14
2023-06-10T07:18:18.686Z,21.19
2023-06-10T07:20:45.446Z,21.25
2023-06-10T07:23:12.253Z,21.25
2023-06-10T07:25:38.824Z,21.25
2023-06-10T07:28:05.678Z,21.35
2023-06-10T07:30:32.509Z,21.41
2023-06-10T07:32:59.206Z,21.50
2023-06-10T07:35:25.902Z,21.54
2023-06-10T07:37:52.459Z,21.60
2023-06-10T07:40:19.156Z,21.66
2023-06-10T07:42:45.744Z,21.67
2023-06-10T07:45:12.548Z,21.75
2023-06-10T07:47:39.270Z,21.87
2023-06-10T07:50:06.278Z,21.93
2023-06-10T07:52:33.079Z,21.97
2023-06-10T07:54:59.603Z,22.06
2023-06-10T07:57:26.220Z,22.03
2023-06-10T07:59:53.389Z,22.05
2023-06-10T08:02:19.981Z,22.15
2023-06-10T08:04:46.612Z,22.27
2023-06-10T08:07:13.183Z,22.40
2023-06-10T08:09:39.759Z,22.47
2023-06-10T08:12:07.409Z,22.63
2023-06-10T08:14:33.950Z,22.77
2023-06-10T08:17:00.734Z,22.91
2023-06-10T08:19:27.347Z,22.99
2023-06-10T08:21:53.863Z,23.14
2023-06-10T08:24:21.288Z,23.28
2023-06-10T08:26:48.064Z,23.35
2023-06-10T08:29:14.843Z,23.42
2023-06-10T08:31:45.165Z,23.50
2023-06-10T08:34:13.005Z,23.59
2023-06-10T08:36:39.552Z,23.72
2023-06-10T08:39:06.118Z,23.90
2023-06-10T08:41:37.287Z,24.01
2023-06-10T08:44:28.939Z,24.12
2023-06-10T08:46:59.479Z,24.17
2023-06-10T08:49:27.863Z,24.28
2023-06-10T08:52:03.143Z,24.33
2023-06-10T08:54:35.704Z,24.40
2023-06-10T08:57:05.110Z,24.42
2023-06-10T08:59:31.716Z,24.54
2023-06-10T09:01:59.546Z,24.68
2023-06-10T09:04:26.483Z,24.72
2023-06-10T09:06:54.572Z,24.76
2023-06-10T09:09:21.412Z,24.87
2023-06-10T09:11:48.058Z,24.92
2023-06-10T09:14:15.193Z,24.97
2023-06-10T09:16:43.172Z,25.04
2023-06-10T09:19:10.156Z,25.31
2023-06-10T09:21:39.576Z,25.44
2023-06-10T09:24:06.722Z,25.39
2023-06-10T09:26:33.348Z,25.43
2023-06-10T09:29:09.889Z,25.49
2023-06-10T09:31:37.646Z,25.53
2023-06-10T09:34:26.652Z,25.52
2023-06-10T09:36:54.255Z,25.65
2023-06-10T09:39:20.919Z,25.61
2023-06-10T09:41:47.620Z,25.61
2023-06-10T09:44:15.642Z,25.63
2023-06-10T09:46:42.993Z,25.71
2023-06-10T09:49:09.674Z,25.84
2023-06-10T09:51:36.422Z,25.87
2023-06-10T09:54:06.239Z,25.94
2023-06-10T09:56:36.807Z,25.89
2023-06-10T09:59:07.168Z,25.95
2023-06-10T10:01:34.609Z,26.13
2023-06-10T10:04:02.430Z,26.22
2023-06-10T10:06:30.682Z,26.26
2023-06-10T10:08:57.433Z,26.40
2023-06-10T10:11:25.278Z,26.46
2023-06-10T10:13:53.574Z,26.56
2023-06-10T10:16:31.419Z,26.50
2023-06-10T10:19:08.048Z,26.44
2023-06-10T10:21:40.998Z,26.50
2023-06-10T10:24:36.259Z,26.48
2023-06-10T10:27:12.354Z,26.56
2023-06-10T10:29:40.821Z,26.65
2023-06-10T10:32:08.408Z,26.60
2023-06-10T10:34:49.498Z,26.67
2023-06-10T10:37:16.189Z,26.78
2023-06-10T10:39:43.178Z,26.74
2023-06-10T10:42:11.439Z,26.86
2023-06-10T10:44:39.435Z,26.91
2023-06-10T10:47:12.339Z,26.88
2023-06-10T10:49:40.524Z,26.85
2023-06-10T10:52:12.779Z,26.87
2023-06-10T10:54:45.545Z,27.01
2023-06-10T10:57:18.332Z,27.05
2023-06-10T10:59:52.669Z,27.04
2023-06-10T11:02:39.732Z,27.02
2023-06-10T11:05:08.536Z,27.13
2023-06-10T11:07:37.262Z,27.07
2023-06-10T11:10:07.999Z,27.22
2023-06-10T11:12:46.680Z,27.25
2023-06-10T11:15:14.543Z,27.33
2023-06-10T11:18:11.268Z,27.38
2023-06-10T11:20:55.028Z,27.43
2023-06-10T11:23:32.079Z,27.43
2023-06-10T11:26:28.313Z,27.38
2023-06-10T11:28:55.055Z,27.31
2023-06-10T11:31:24.886Z,27.38
2023-06-10T11:33:59.119Z,27.57
2023-06-10T11:36:27.010Z,27.68
2023-06-10T11:38:57.522Z,27.57
2023-06-10T11:41:28.115Z,27.56
2023-06-10T11:43:57.893Z,27.62
2023-06-10T11:46:25.265Z,27.61
2023-06-10T11:48:57.415Z,27.72
2023-06-10T11:51:27.968Z,27.81
2023-06-10T11:53:55.404Z,27.71
2023-06-10T11:56:27.983Z,27.71
2023-06-10T11:58:59.503Z,27.68
2023-06-10T12:01:29.509Z,27.70
2023-06-10T12:04:01.209Z,27.79
2023-06-10T12:06:28.015Z,27.93
2023-06-10T12:08:56.581Z,27.93
2023-06-10T12:11:27.904Z,27.88
2023-06-10T12:13:54.401Z,27.85
2023-06-10T12:16:21.050Z,27.83
2023-06-10T12:18:47.923Z,27.83
2023-06-10T12:21:24.384Z,27.85
2023-06-10T12:24:05.547Z,27.90
2023-06-10T12:26:47.579Z,28.08
2023-06-10T12:29:22.047Z,28.12
2023-06-10T12:31:58.783Z,28.09
2023-06-10T12:34:41.398Z,28.07
2023-06-10T12:37:14.601Z,28.01
2023-06-10T12:39:42.702Z,27.98
2023-06-10T12:42:13.510Z,28.03
2023-06-10T12:44:42.149Z,28.05
2023-06-10T12:47:10.887Z,28.08
2023-06-10T12:49:38.337Z,28.13
2023-06-10T12:52:06.136Z,28.21
2023-06-10T12:54:32.824Z,28.25
2023-06-10T12:56:59.442Z,28.34
2023-06-10T12:59:28.395Z,28.43
2023-06-10T13:01:55.652Z,28.37
2023-06-10T13:04:22.617Z,28.39
2023-06-10T13:06:50.132Z,28.27
2023-06-10T13:09:17.167Z,28.26
2023-06-10T13:11:44.077Z,28.31
2023-06-10T13:14:11.540Z,28.43
2023-06-10T13:16:39.310Z,28.46
2023-06-10T13:19:06.677Z,28.52
2023-06-10T13:21:35.168Z,28.54
2023-06-10T13:24:02.155Z,28.52
2023-06-10T13:26:28.828Z,28.50
2023-06-10T13:28:55.515Z,28.39
2023-06-10T13:31:22.383Z,28.42
2023-06-10T13:33:49.232Z,28.46
2023-06-10T13:36:15.960Z,28.49
2023-06-10T13:38:42.509Z,28.47
2023-06-10T13:41:09.079Z,28.45
2023-06-10T13:43:36.527Z,28.45
2023-06-10T13:46:03.068Z,28.48
2023-06-10T13:48:29.748Z,28.47
2023-06-10T13:50:56.315Z,28.51
2023-06-10T13:53:22.825Z,28.57
2023-06-10T13:55:49.683Z,28.59
2023-06-10T13:58:16.326Z,28.56
2023-06-10T14:00:42.935Z,28.59
2023-06-10T14:03:09.584Z,28.58
2023-06-10T14:05:36.189Z,28.63
2023-06-10T14:08:02.719Z,28.61
2023-06-10T14:10:29.285Z,28.56
2023-06-10T14:12:55.859Z,28.54
2023-06-10T14:15:22.808Z,28.59
2023-06-10T14:17:49.465Z,28.65
2023-06-10T14:20:16.135Z,28.73
2023-06-10T14:22:42.756Z,28.82
2023-06-10T14:25:09.734Z,28.84
2023-06-10T14:27:36.638Z,28.86
2023-06-10T14:30:04.179Z,28.87
2023-06-10T14:32:30.884Z,28.80
2023-06-10T14:34:57.566Z,28.81
2023-06-10T14:37:24.514Z,28.78
2023-06-10T14:39:51.063Z,28.81
2023-06-10T14:42:17.617Z,28.89
2023-06-10T14:44:44.106Z,28.89
2023-06-10T14:47:10.668Z,28.85
2023-06-10T14:49:37.240Z,28.80
2023-06-10T14:52:04.043Z,28.80
2023-06-10T14:54:30.726Z,28.74
2023-06-10T14:56:57.246Z,28.76
2023-06-10T14:59:23.841Z,28.80
2023-06-10T15:01:50.453Z,28.86
2023-06-10T15:04:17.077Z,28.95
2023-06-10T15:06:44.641Z,28.94
2023-06-10T15:09:11.130Z,28.88
2023-06-10T15:11:39.322Z,28.84
2023-06-10T15:14:05.839Z,28.83
2023-06-10T15:16:32.400Z,28.83
2023-06-10T15:18:59.017Z,28.83
2023-06-10T15:21:25.557Z,28.86
2023-06-10T15:23:52.493Z,28.82
2023-06-10T15:26:19.040Z,28.81
2023-06-10T15:28:46.214Z,28.77
2023-06-10T15:31:12.797Z,28.74
2023-06-10T15:33:39.344Z,28.72
2023-06-10T15:36:07.140Z,28.75
2023-06-10T15:38:33.869Z,28.72
2023-06-10T15:41:00.408Z,28.74
2023-06-10T15:43:26.917Z,28.65
2023-06-10T15:45:53.555Z,28.73
2023-06-10T15:48:20.235Z,28.72
2023-06-10T15:50:46.777Z,28.73
2023-06-10T15:53:13.266Z,28.77
2023-06-10T15:55:39.848Z,28.76
2023-06-10T15:58:06.740Z,28.69
2023-06-10T16:00:33.600Z,28.67
2023-06-10T16:03:01.527Z,28.64
2023-06-10T16:05:28.146Z,28.64
2023-06-10T16:07:54.675Z,28.68
2023-06-10T16:10:23.126Z,28.74
2023-06-10T16:12:49.699Z,28.73
2023-06-10T16:15:16.501Z,28.75
2023-06-10T16:17:44.203Z,28.71
2023-06-10T16:20:11.550Z,28.67
2023-06-10T16:22:38.151Z,28.71
2023-06-10T16:25:05.127Z,28.67
2023-06-10T16:27:31.684Z,28.57
2023-06-10T16:29:58.320Z,28.55
2023-06-10T16:32:24.862Z,28.52
2023-06-10T16:34:51.403Z,28.56
2023-06-10T16:37:17.962Z,28.60
2023-06-10T16:39:44.556Z,28.61
2023-06-10T16:42:11.637Z,28.59
2023-06-10T16:44:38.241Z,28.57
2023-06-10T16:47:05.167Z,28.53
2023-06-10T16:49:31.864Z,28.50
2023-06-10T16:51:58.377Z,28.49
2023-06-10T16:54:25.599Z,28.48
2023-06-10T16:56:52.187Z,28.47
2023-06-10T16:59:18.684Z,28.44
2023-06-10T17:01:45.357Z,28.43
2023-06-10T17:04:12.981Z,28.44
2023-06-10T17:06:39.567Z,28.41
2023-06-10T17:09:06.172Z,28.34
2023-06-10T17:11:34.109Z,28.30
2023-06-10T17:14:00.692Z,28.32
2023-06-10T17:16:27.361Z,28.34
2023-06-10T17:18:53.939Z,28.33
2023-06-10T17:21:20.703Z,28.33
2023-06-10T17:23:47.705Z,28.29
2023-06-10T17:26:14.701Z,28.27
2023-06-10T17:28:41.297Z,28.19
2023-06-10T17:31:07.894Z,28.14
2023-06-10T17:33:34.524Z,28.15
2023-06-10T17:36:01.177Z,28.15
2023-06-10T17:38:27.741Z,28.15
2023-06-10T17:40:54.425Z,28.12
2023-06-10T17:43:21.715Z,28.07
2023-06-10T17:45:51.385Z,28.08
2023-06-10T17:48:18.047Z,28.02
2023-06-10T17:50:44.894Z,27.96
2023-06-10T17:53:11.388Z,27.93
2023-06-10T17:55:37.972Z,27.91
2023-06-10T17:58:04.577Z,27.83
2023-06-10T18:00:31.583Z,27.80
2023-06-10T18:02:58.356Z,27.77
2023-06-10T18:05:24.919Z,27.74
2023-06-10T18:07:51.882Z,27.71
2023-06-10T18:10:18.606Z,27.66
2023-06-10T18:12:45.122Z,27.62
2023-06-10T18:15:12.099Z,27.55
2023-06-10T18:17:39.083Z,27.50
2023-06-10T18:20:06.502Z,27.44
2023-06-10T18:22:33.394Z,27.45
2023-06-10T18:25:00.572Z,27.41
2023-06-10T18:27:27.097Z,27.38
2023-06-10T18:29:53.624Z,27.33
2023-06-10T18:32:20.338Z,27.30
2023-06-10T18:34:47.457Z,27.28
2023-06-10T18:37:14.434Z,27.25
2023-06-10T18:39:41.004Z,27.23
2023-06-10T18:42:08.819Z,27.18
2023-06-10T18:44:35.347Z,27.13
2023-06-10T18:47:02.056Z,27.11
2023-06-10T18:49:28.549Z,27.09
2023-06-10T18:51:55.166Z,27.06
2023-06-10T18:54:21.814Z,26.95
2023-06-10T18:56:49.532Z,26.91
2023-06-10T18:59:16.259Z,26.83
2023-06-10T19:01:42.848Z,26.73
2023-06-10T19:04:09.444Z,26.68
2023-06-10T19:06:38.678Z,26.64
2023-06-10T19:09:05.688Z,26.53
2023-06-10T19:11:32.596Z,26.47
2023-06-10T19:13:59.329Z,26.44
2023-06-10T19:16:26.190Z,26.38
2023-06-10T19:18:52.918Z,26.23
2023-06-10T19:21:19.547Z,26.14
2023-06-10T19:23:46.762Z,26.12
2023-06-10T19:26:13.447Z,26.06
2023-06-10T19:28:40.053Z,25.95
2023-06-10T19:31:12.365Z,25.81
2023-06-10T19:33:41.001Z,25.66
2023-06-10T19:36:07.631Z,25.61
2023-06-10T19:38:34.250Z,25.54
2023-06-10T19:41:02.280Z,25.46
2023-06-10T19:43:28.906Z,25.40
2023-06-10T19:45:55.541Z,25.38
2023-06-10T19:48:23.202Z,25.29
2023-06-10T19:50:50.028Z,25.27
2023-06-10T19:53:16.582Z,25.21
2023-06-10T19:55:43.111Z,25.17
2023-06-10T19:58:09.617Z,25.11
2023-06-10T20:00:36.146Z,25.03
2023-06-10T20:03:03.637Z,24.97
2023-06-10T20:05:30.365Z,24.90
2023-06-10T20:07:56.894Z,24.82
2023-06-10T20:10:23.456Z,24.74
2023-06-10T20:12:49.967Z,24.68
2023-06-10T20:15:16.718Z,24.61
2023-06-10T20:17:43.445Z,24.54
2023-06-10T20:20:10.750Z,24.50
2023-06-10T20:22:37.561Z,24.47
2023-06-10T20:25:04.484Z,24.40
2023-06-10T20:27:31.099Z,24.37
2023-06-10T20:29:57.985Z,24.28
2023-06-10T20:32:25.249Z,24.24
2023-06-10T20:34:52.188Z,24.19
2023-06-10T20:37:18.910Z,24.17
2023-06-10T20:39:45.723Z,24.12
2023-06-10T20:42:14.245Z,24.07
2023-06-10T20:44:42.800Z,23.96
2023-06-10T20:47:09.416Z,23.91
2023-06-10T20:49:36.085Z,23.94
2023-06-10T20:52:02.726Z,23.93
2023-06-10T20:54:29.285Z,23.92
2023-06-10T20:56:55.894Z,23.85
2023-06-10T20:59:22.606Z,23.77
2023-06-10T21:01:49.420Z,23.67
2023-06-10T21:04:16.226Z,23.50
2023-06-10T21:06:43.658Z,23.39
2023-06-10T21:09:10.144Z,23.32
2023-06-10T21:11:36.636Z,23.25
2023-06-10T21:14:04.722Z,23.11
2023-06-10T21:16:34.879Z,22.96
2023-06-10T21:19:01.979Z,22.81
2023-06-10T21:21:28.570Z,22.75
2023-06-10T21:23:55.561Z,22.74
2023-06-10T21:26:22.166Z,22.58
2023-06-10T21:28:49.430Z,22.54
2023-06-10T21:31:15.969Z,22.59
2023-06-10T21:33:42.486Z,22.58
2023-06-10T21:36:09.049Z,22.44
2023-06-10T21:38:35.630Z,22.28
2023-06-10T21:41:02.127Z,22.19
2023-06-10T21:43:28.657Z,22.19
2023-06-10T21:45:57.385Z,22.03
2023-06-10T21:48:24.327Z,21.91
2023-06-10T21:50:50.858Z,21.82
2023-06-10T21:53:17.427Z,21.77
2023-06-10T21:55:43.935Z,21.69
2023-06-10T21:58:10.480Z,21.60
2023-06-10T22:00:37.439Z,21.54
2023-06-10T22:03:04.431Z,21.53
2023-06-10T22:05:31.027Z,21.49
2023-06-10T22:07:57.629Z,21.42
2023-06-10T22:10:24.333Z,21.32
2023-06-10T22:12:51.204Z,21.23
2023-06-10T22:15:17.908Z,21.18
2023-06-10T22:17:44.851Z,21.15
2023-06-10T22:20:12.667Z,21.18
2023-06-10T22:22:40.399Z,21.12
2023-06-10T22:25:07.642Z,21.02
2023-06-10T22:27:34.508Z,20.90
2023-06-10T22:30:01.843Z,20.82
2023-06-10T22:32:28.536Z,20.78
2023-06-10T22:34:55.454Z,20.84
2023-06-10T22:37:22.367Z,20.85
2023-06-10T22:39:48.923Z,20.77
2023-06-10T22:42:15.516Z,20.72
2023-06-10T22:44:42.070Z,20.58
2023-06-10T22:47:09.154Z,20.45
2023-06-10T22:49:35.724Z,20.47
2023-06-10T22:52:02.329Z,20.52
2023-06-10T22:54:28.883Z,20.51
2023-06-10T22:56:55.503Z,20.43
2023-06-10T22:59:22.060Z,20.45
2023-06-10T23:01:48.775Z,20.50
2023-06-10T23:04:15.692Z,20.57
2023-06-10T23:06:42.627Z,20.52
2023-06-10T23:09:10.366Z,20.51
2023-06-10T23:11:37.275Z,20.43
2023-06-10T23:14:03.895Z,20.43
2023-06-10T23:16:30.628Z,20.40
2023-06-10T23:18:57.763Z,20.41
2023-06-10T23:21:24.435Z,20.36
2023-06-10T23:23:52.752Z,20.31
2023-06-10T23:26:19.607Z,20.32
2023-06-10T23:28:46.172Z,20.30
2023-06-10T23:31:12.772Z,20.23
2023-06-10T23:33:40.018Z,20.17
2023-06-10T23:36:07.147Z,20.01
2023-06-10T23:38:33.817Z,19.89
2023-06-10T23:41:00.407Z,19.92
2023-06-10T23:43:26.947Z,19.86
2023-06-10T23:45:53.754Z,19.77
2023-06-10T23:48:20.397Z,19.78
2023-06-10T23:50:46.958Z,19.68
2023-06-10T23:53:13.499Z,19.61
2023-06-10T23:55:40.245Z,19.63
2023-06-10T23:58:06.903Z,19.58
